Time;durP1;ratioP1;P1;durP2;ratioP2;P2;SDS_P1;SDS_P2;PMS_P1;PMS_P2;Temp;Humidity;BMP_temperature;BMP_pressure;BME280_temperature;BME280_humidity;BME280_pressure;Samples;Min_cycle;Max_cycle;Signal;HPM_P1;HPM_P2
2023/08/05 00:02:18;;;;;;;16.73;7.95;;;;;12.50;94075.00;;;;7398428;19;20168;-76
2023/08/05 00:04:53;;;;;;;14.25;7.00;;;;;12.60;94079.00;;;;7398281;19;20183;-76
2023/08/05 00:07:35;;;;;;;11.15;6.57;;;;;12.50;94070.00;;;;7395713;19;20171;-75
2023/08/05 00:10:10;;;;;;;8.82;6.43;;;;;12.50;94073.00;;;;7395728;19;20784;-74
2023/08/05 00:12:38;;;;;;;13.00;7.93;;;;;12.50;94083.00;;;;7398806;19;20220;-75
2023/08/05 00:15:12;;;;;;;12.57;7.50;;;;;12.60;94088.00;;;;7400150;19;20584;-76
2023/08/05 00:17:47;;;;;;;16.42;6.72;;;;;12.50;94081.00;;;;7399302;19;21267;-76
2023/08/05 00:20:21;;;;;;;12.82;7.32;;;;;12.60;94094.00;;;;7399642;19;20545;-77
2023/08/05 00:22:55;;;;;;;12.43;6.85;;;;;12.60;94094.00;;;;7400375;19;20604;-79
2023/08/05 00:25:23;;;;;;;15.48;7.93;;;;;12.60;94088.00;;;;7399580;19;20156;-79
2023/08/05 00:27:57;;;;;;;13.70;7.70;;;;;12.60;94086.00;;;;7398875;19;20649;-78
2023/08/05 00:30:25;;;;;;;12.63;7.55;;;;;12.60;94088.00;;;;7400545;19;20136;-78
2023/08/05 00:32:53;;;;;;;12.57;6.82;;;;;12.60;94086.00;;;;7397088;19;20155;-78
2023/08/05 00:35:27;;;;;;;12.43;6.80;;;;;12.50;94088.00;;;;7399601;19;20228;-76
2023/08/05 00:37:55;;;;;;;12.45;6.55;;;;;12.50;94082.00;;;;7400321;19;20154;-77
2023/08/05 00:40:29;;;;;;;12.68;6.78;;;;;12.60;94079.00;;;;7398362;19;20490;-76
2023/08/05 00:43:03;;;;;;;11.73;7.93;;;;;12.50;94073.00;;;;7398940;19;20124;-78
2023/08/05 00:45:37;;;;;;;12.25;6.95;;;;;12.40;94064.00;;;;7392275;19;20585;-79
2023/08/05 00:48:11;;;;;;;12.32;7.40;;;;;12.50;94068.00;;;;7396792;19;20208;-79
2023/08/05 00:50:46;;;;;;;13.07;6.93;;;;;12.50;94078.00;;;;7398431;19;20500;-78
2023/08/05 00:53:23;;;;;;;11.93;6.90;;;;;12.50;94061.00;;;;7398102;19;20204;-78
2023/08/05 00:55:58;;;;;;;14.38;8.05;;;;;12.50;94068.00;;;;7399343;19;20517;-78
2023/08/05 00:58:27;;;;;;;15.90;8.23;;;;;12.50;94067.00;;;;7399472;19;20684;-78
2023/08/05 01:01:01;;;;;;;13.52;7.85;;;;;12.40;94060.00;;;;7396982;19;20176;-80
2023/08/05 01:03:42;;;;;;;12.98;7.97;;;;;12.60;94061.00;;;;7400235;19;20132;-79
2023/08/05 01:06:25;;;;;;;12.30;8.38;;;;;12.50;94059.00;;;;7398549;19;20141;-79
2023/08/05 01:09:00;;;;;;;13.95;7.18;;;;;12.40;94049.00;;;;7398208;19;20473;-79
2023/08/05 01:11:34;;;;;;;11.32;7.50;;;;;12.30;94044.00;;;;7397104;19;20171;-77
2023/08/05 01:14:08;;;;;;;13.55;8.30;;;;;12.40;94035.00;;;;7397989;19;20140;-78
2023/08/05 01:16:42;;;;;;;15.13;8.25;;;;;12.30;94027.00;;;;7398139;19;20132;-79
2023/08/05 01:19:22;;;;;;;11.93;7.80;;;;;12.40;94029.00;;;;7397200;19;20133;-80
2023/08/05 01:22:28;;;;;;;15.88;7.50;;;;;12.20;94022.00;;;;7399183;19;20482;-78
2023/08/05 01:25:05;;;;;;;14.85;7.85;;;;;12.10;94029.00;;;;7397175;19;20141;-78
2023/08/05 01:27:39;;;;;;;11.23;7.30;;;;;12.10;94020.00;;;;7397923;19;20142;-80
2023/08/05 01:30:08;;;;;;;16.45;8.32;;;;;12.10;94027.00;;;;7397703;19;20156;-80
2023/08/05 01:32:42;;;;;;;14.00;8.88;;;;;12.10;94032.00;;;;7395408;19;20155;-80
2023/08/05 01:35:11;;;;;;;13.63;8.35;;;;;12.10;94032.00;;;;7398428;19;20133;-79
2023/08/05 01:37:46;;;;;;;17.95;8.65;;;;;12.00;94034.00;;;;7397319;19;20207;-79
2023/08/05 01:40:15;;;;;;;12.32;7.75;;;;;11.90;94035.00;;;;7397215;19;20157;-79
2023/08/05 01:42:42;;;;;;;13.95;8.55;;;;;12.00;94030.00;;;;7398821;19;20649;-78
2023/08/05 01:45:17;;;;;;;14.23;8.05;;;;;11.90;94038.00;;;;7397171;19;20145;-77
2023/08/05 01:47:45;;;;;;;14.65;7.90;;;;;12.00;94037.00;;;;7396626;19;20600;-78
2023/08/05 01:50:19;;;;;;;13.77;7.70;;;;;12.00;94039.00;;;;7397184;19;20144;-79
2023/08/05 01:52:47;;;;;;;10.98;7.90;;;;;11.90;94037.00;;;;7397394;19;20446;-78
2023/08/05 01:55:15;;;;;;;17.13;8.52;;;;;11.90;94037.00;;;;7398351;19;20133;-78
2023/08/05 01:57:49;;;;;;;16.80;8.60;;;;;11.80;94041.00;;;;7396642;19;20669;-78
2023/08/05 02:00:20;;;;;;;12.48;7.97;;;;;11.80;94038.00;;;;7397826;19;20161;-78
2023/08/05 02:02:54;;;;;;;11.73;8.60;;;;;11.90;94044.00;;;;7397225;19;20128;-78
2023/08/05 02:05:23;;;;;;;15.25;9.07;;;;;11.80;94038.00;;;;7396062;19;20167;-78
2023/08/05 02:08:03;;;;;;;14.32;8.80;;;;;11.80;94031.00;;;;7397386;19;20592;-78
2023/08/05 02:10:39;;;;;;;11.02;8.35;;;;;11.80;94037.00;;;;7396805;19;20208;-78
2023/08/05 02:13:08;;;;;;;12.90;7.97;;;;;11.70;94030.00;;;;7395759;19;20133;-75
2023/08/05 02:15:42;;;;;;;17.98;7.88;;;;;11.70;94031.00;;;;7395664;19;20169;-76
2023/08/05 02:18:17;;;;;;;18.38;8.68;;;;;11.70;94028.00;;;;7397265;19;20151;-77
2023/08/05 02:20:51;;;;;;;12.15;8.07;;;;;11.70;94029.00;;;;7397166;19;20141;-75
2023/08/05 02:23:19;;;;;;;17.77;9.05;;;;;11.80;94028.00;;;;7395695;19;20154;-77
2023/08/05 02:25:53;;;;;;;13.07;8.38;;;;;11.80;94018.00;;;;7396794;19;20156;-77
2023/08/05 02:28:21;;;;;;;10.65;7.45;;;;;11.80;94015.00;;;;7396725;19;20892;-76
2023/08/05 02:30:49;;;;;;;14.40;8.32;;;;;11.80;94008.00;;;;7395661;19;20151;-77
2023/08/05 02:33:23;;;;;;;13.90;8.85;;;;;11.70;94008.00;;;;7396937;19;20124;-76
2023/08/05 02:36:00;;;;;;;11.88;8.25;;;;;11.70;94003.00;;;;7394987;19;20129;-75
2023/08/05 02:38:34;;;;;;;12.27;8.02;;;;;11.70;94007.00;;;;7395053;19;20157;-77
2023/08/05 02:41:09;;;;;;;17.70;8.68;;;;;11.70;94014.00;;;;7395426;19;20542;-77
2023/08/05 02:43:43;;;;;;;13.70;8.20;;;;;11.70;93999.00;;;;7395124;19;20132;-77
2023/08/05 02:46:11;;;;;;;13.15;7.88;;;;;11.80;94005.00;;;;7394420;19;20649;-77
2023/08/05 02:48:45;;;;;;;19.75;10.25;;;;;11.80;94006.00;;;;7395751;19;20144;-78
2023/08/05 02:51:13;;;;;;;16.40;7.68;;;;;11.80;93999.00;;;;7394812;19;20159;-76
2023/08/05 02:53:43;;;;;;;12.88;8.27;;;;;11.80;94006.00;;;;7393367;19;20172;-76
2023/08/05 02:56:17;;;;;;;19.77;9.60;;;;;11.80;94004.00;;;;7396945;19;20150;-79
2023/08/05 02:58:47;;;;;;;12.15;8.20;;;;;11.80;94008.00;;;;7395502;19;20141;-76
2023/08/05 03:01:21;;;;;;;13.52;8.82;;;;;11.80;94016.00;;;;7393896;19;20489;-76
2023/08/05 03:03:56;;;;;;;14.85;8.85;;;;;11.90;94009.00;;;;7394498;19;20135;-78
2023/08/05 03:06:37;;;;;;;17.75;9.98;;;;;11.80;94018.00;;;;7396312;19;20124;-77
2023/08/05 03:09:05;;;;;;;19.20;9.52;;;;;11.80;94016.00;;;;7396202;19;20637;-76
2023/08/05 03:11:39;;;;;;;18.95;9.40;;;;;11.90;94008.00;;;;7394128;19;20495;-76
2023/08/05 03:14:09;;;;;;;17.85;9.23;;;;;11.70;93995.00;;;;7394156;19;20152;-78
2023/08/05 03:16:37;;;;;;;16.40;9.50;;;;;11.60;94000.00;;;;7394277;19;20189;-76
2023/08/05 03:19:11;;;;;;;18.13;8.55;;;;;11.60;94001.00;;;;7394223;19;20259;-77
2023/08/05 03:21:39;;;;;;;19.55;9.43;;;;;11.70;93995.00;;;;7395232;19;20155;-77
2023/08/05 03:24:14;;;;;;;18.25;9.27;;;;;11.60;93997.00;;;;7395302;19;20144;-78
2023/08/05 03:26:42;;;;;;;14.57;9.60;;;;;11.60;94005.00;;;;7395744;19;20152;-78
2023/08/05 03:29:20;;;;;;;16.50;10.77;;;;;11.50;94007.00;;;;7404380;19;20184;-78
2023/08/05 03:31:56;;;;;;;20.92;10.75;;;;;11.50;94004.00;;;;7402858;19;20150;-78
2023/08/05 03:34:30;;;;;;;18.50;10.45;;;;;11.40;94005.00;;;;7401154;19;20512;-77
2023/08/05 03:37:05;;;;;;;17.30;9.38;;;;;11.40;94017.00;;;;7402730;19;20133;-75
2023/08/05 03:39:42;;;;;;;14.13;9.80;;;;;11.40;94028.00;;;;7401562;19;20159;-77
2023/08/05 03:42:23;;;;;;;17.38;8.93;;;;;11.40;94042.00;;;;7402346;19;20147;-75
2023/08/05 03:44:51;;;;;;;16.95;10.13;;;;;11.40;94036.00;;;;7402727;19;20131;-77
2023/08/05 03:47:30;;;;;;;19.02;9.68;;;;;11.50;94035.00;;;;7400458;19;20230;-78
2023/08/05 03:49:58;;;;;;;21.67;9.75;;;;;11.40;94039.00;;;;7400977;19;20169;-78
2023/08/05 03:52:38;;;;;;;18.80;10.15;;;;;11.60;94047.00;;;;7400856;19;20136;-75
2023/08/05 03:55:08;;;;;;;19.10;10.25;;;;;11.50;94043.00;;;;7395309;19;20144;-76
2023/08/05 03:57:43;;;;;;;20.35;11.80;;;;;11.60;94047.00;;;;7400581;19;20203;-76
2023/08/05 04:00:12;;;;;;;15.50;10.43;;;;;11.60;94056.00;;;;7399609;19;20145;-76
2023/08/05 04:02:46;;;;;;;17.58;9.95;;;;;11.50;94066.00;;;;7399786;19;20953;-77
2023/08/05 04:05:14;;;;;;;17.30;10.45;;;;;11.70;94066.00;;;;7398273;19;20169;-78
2023/08/05 04:07:48;;;;;;;19.08;12.45;;;;;11.60;94054.00;;;;7400277;19;20539;-77
2023/08/05 04:10:21;;;;;;;22.58;11.75;;;;;11.50;94051.00;;;;7396334;19;20145;-76
2023/08/05 04:12:56;;;;;;;24.35;11.02;;;;;11.60;94052.00;;;;7399730;19;20136;-77
2023/08/05 04:15:27;;;;;;;20.95;11.65;;;;;11.60;94048.00;;;;7394212;19;20147;-77
2023/08/05 04:18:03;;;;;;;26.98;11.43;;;;;11.70;94055.00;;;;7399301;19;20492;-77
2023/08/05 04:20:40;;;;;;;27.77;11.35;;;;;11.60;94041.00;;;;7397488;19;20490;-77
2023/08/05 04:23:09;;;;;;;24.48;10.73;;;;;11.50;94048.00;;;;7399460;19;20597;-77
2023/08/05 04:25:51;;;;;;;18.77;11.55;;;;;11.50;94050.00;;;;7400061;19;20525;-79
2023/08/05 04:28:24;;;;;;;26.17;11.93;;;;;11.60;94050.00;;;;7398887;19;20140;-78
2023/08/05 04:30:58;;;;;;;18.15;11.23;;;;;11.60;94052.00;;;;7399257;19;20475;-76
2023/08/05 04:33:28;;;;;;;22.20;11.07;;;;;11.50;94049.00;;;;7397181;19;20170;-76
2023/08/05 04:36:02;;;;;;;20.00;10.85;;;;;11.40;94054.00;;;;7399875;19;20183;-78
2023/08/05 04:38:36;;;;;;;22.88;12.38;;;;;11.50;94048.00;;;;7398730;19;20222;-78
2023/08/05 04:41:10;;;;;;;24.02;12.77;;;;;11.50;94041.00;;;;7400498;19;20174;-77
2023/08/05 04:43:45;;;;;;;20.33;11.88;;;;;11.50;94044.00;;;;7398600;19;20751;-77
2023/08/05 04:46:20;;;;;;;21.90;11.95;;;;;11.50;94053.00;;;;7399441;19;20174;-77
2023/08/05 04:48:56;;;;;;;24.05;12.90;;;;;11.50;94058.00;;;;7399912;19;20624;-77
2023/08/05 04:51:24;;;;;;;22.40;11.60;;;;;11.60;94056.00;;;;7386354;19;20137;-78
2023/08/05 04:54:01;;;;;;;33.40;13.52;;;;;11.70;94051.00;;;;7380643;19;20202;-78
2023/08/05 04:56:29;;;;;;;24.25;12.48;;;;;11.70;94047.00;;;;7388808;19;20133;-76
2023/08/05 04:59:04;;;;;;;23.65;12.82;;;;;11.70;94052.00;;;;7385352;19;20148;-78
2023/08/05 05:01:38;;;;;;;23.95;11.60;;;;;11.80;94056.00;;;;7387439;19;20200;-77
2023/08/05 05:04:15;;;;;;;21.08;12.35;;;;;11.90;94066.00;;;;7385893;19;21245;-78
2023/08/05 05:06:49;;;;;;;24.35;13.27;;;;;11.90;94071.00;;;;7387229;19;20662;-79
2023/08/05 05:09:23;;;;;;;23.88;13.70;;;;;12.00;94078.00;;;;7388124;19;20247;-76
2023/08/05 05:12:00;;;;;;;21.92;12.55;;;;;12.00;94074.00;;;;7387974;19;20161;-77
2023/08/05 05:14:44;;;;;;;24.95;13.40;;;;;12.10;94079.00;;;;7386927;19;20159;-76
2023/08/05 05:17:21;;;;;;;21.30;12.23;;;;;12.20;94072.00;;;;7387042;19;20157;-76
2023/08/05 05:19:51;;;;;;;20.70;11.73;;;;;12.30;94073.00;;;;7386824;19;20133;-77
2023/08/05 05:22:27;;;;;;;20.55;13.43;;;;;12.30;94071.00;;;;7387482;19;20225;-76
2023/08/05 05:24:59;;;;;;;18.23;11.40;;;;;12.30;94067.00;;;;7386896;19;20164;-78
2023/08/05 05:27:35;;;;;;;19.52;12.23;;;;;12.40;94058.00;;;;7386539;19;20968;-77
2023/08/05 05:30:03;;;;;;;20.00;12.35;;;;;12.50;94062.00;;;;7387409;19;20173;-77
2023/08/05 05:32:38;;;;;;;22.15;12.15;;;;;12.50;94067.00;;;;7389774;19;20128;-77
2023/08/05 05:35:06;;;;;;;25.88;12.20;;;;;12.40;94060.00;;;;7386771;19;20159;-78
2023/08/05 05:37:42;;;;;;;16.45;11.57;;;;;12.50;94059.00;;;;7386843;19;20153;-76
2023/08/05 05:40:17;;;;;;;17.20;11.95;;;;;12.50;94053.00;;;;7387009;19;20148;-77
2023/08/05 05:42:57;;;;;;;18.15;11.35;;;;;12.50;94053.00;;;;7387187;19;20149;-78
2023/08/05 05:45:34;;;;;;;17.17;10.68;;;;;12.70;94058.00;;;;7387259;19;20610;-76
2023/08/05 05:48:12;;;;;;;20.05;12.88;;;;;12.70;94049.00;;;;7386868;19;20152;-77
2023/08/05 05:50:46;;;;;;;20.10;11.15;;;;;12.80;94039.00;;;;7384541;19;20152;-77
2023/08/05 05:53:20;;;;;;;17.08;10.15;;;;;12.70;94038.00;;;;7389155;19;20132;-77
2023/08/05 05:55:54;;;;;;;21.88;11.20;;;;;12.60;94044.00;;;;7389703;19;20568;-78
2023/08/05 05:58:28;;;;;;;16.48;10.90;;;;;12.50;94043.00;;;;7386107;19;20615;-77
2023/08/05 06:01:05;;;;;;;19.70;12.32;;;;;12.60;94057.00;;;;7389573;19;20209;-77
2023/08/05 06:03:43;;;;;;;21.25;11.13;;;;;12.70;94050.00;;;;7390882;19;20189;-77
2023/08/05 06:06:17;;;;;;;13.68;10.25;;;;;12.60;94050.00;;;;7388028;19;20161;-79
2023/08/05 06:08:52;;;;;;;15.70;10.68;;;;;12.70;94053.00;;;;7385638;19;20151;-77
2023/08/05 06:11:21;;;;;;;15.60;11.18;;;;;12.70;94056.00;;;;7385876;19;20164;-77
2023/08/05 06:13:55;;;;;;;15.20;11.00;;;;;12.80;94048.00;;;;7386614;19;20136;-77
2023/08/05 06:16:31;;;;;;;14.48;11.07;;;;;12.60;94048.00;;;;7384363;19;20156;-76
2023/08/05 06:19:10;;;;;;;18.73;10.43;;;;;12.80;94034.00;;;;7385605;19;20143;-77
2023/08/05 06:21:40;;;;;;;18.33;10.93;;;;;12.80;94037.00;;;;7384706;19;20164;-77
2023/08/05 06:24:15;;;;;;;14.07;11.27;;;;;12.90;94040.00;;;;7385062;19;22955;-78
2023/08/05 06:26:43;;;;;;;15.48;10.13;;;;;12.90;94038.00;;;;7384314;19;20125;-79
2023/08/05 06:29:19;;;;;;;15.35;10.27;;;;;12.90;94044.00;;;;7385089;19;20595;-76
2023/08/05 06:31:55;;;;;;;14.93;9.73;;;;;13.20;94032.00;;;;7384220;19;20154;-77
2023/08/05 06:34:31;;;;;;;13.45;9.98;;;;;13.60;94031.00;;;;7384028;19;20478;-78
2023/08/05 06:36:58;;;;;;;19.13;11.13;;;;;13.40;94037.00;;;;7386004;19;20184;-77
2023/08/05 06:39:35;;;;;;;14.27;10.18;;;;;13.80;94033.00;;;;7386238;19;20614;-76
2023/08/05 06:42:23;;;;;;;12.15;9.77;;;;;13.70;94021.00;;;;7386103;19;20161;-77
2023/08/05 06:45:04;;;;;;;14.60;10.35;;;;;13.60;94008.00;;;;7384725;19;20584;-78
2023/08/05 06:47:33;;;;;;;16.67;10.30;;;;;13.80;94010.00;;;;7385364;19;20144;-76
2023/08/05 06:50:07;;;;;;;17.45;12.07;;;;;13.80;94013.00;;;;7384747;19;20147;-77
2023/08/05 06:52:35;;;;;;;15.63;9.73;;;;;14.00;94023.00;;;;7386141;19;20450;-77
2023/08/05 06:55:10;;;;;;;14.57;9.15;;;;;13.90;94014.00;;;;7385309;19;20148;-77
2023/08/05 06:57:48;;;;;;;13.38;10.07;;;;;13.90;94022.00;;;;7384017;19;20200;-78
2023/08/05 07:00:22;;;;;;;13.35;9.68;;;;;13.90;94019.00;;;;7381047;19;20132;-79
2023/08/05 07:02:57;;;;;;;15.70;9.30;;;;;14.10;94011.00;;;;7386632;19;20592;-77
2023/08/05 07:05:37;;;;;;;14.13;9.40;;;;;14.30;94015.00;;;;7383389;19;20240;-77
2023/08/05 07:08:22;;;;;;;12.38;8.70;;;;;14.40;93997.00;;;;7385752;19;20144;-76
2023/08/05 07:10:57;;;;;;;12.43;8.38;;;;;14.30;94005.00;;;;7385682;19;20148;-75
2023/08/05 07:13:31;;;;;;;10.55;8.55;;;;;14.80;94003.00;;;;7385507;19;20144;-77
2023/08/05 07:16:07;;;;;;;9.98;8.02;;;;;14.80;93997.00;;;;7386180;19;20148;-75
2023/08/05 07:18:35;;;;;;;10.23;8.18;;;;;14.80;94012.00;;;;7383083;19;20143;-78
2023/08/05 07:21:09;;;;;;;10.85;6.63;;;;;14.60;94012.00;;;;7384411;19;20149;-77
2023/08/05 07:23:43;;;;;;;11.48;7.07;;;;;14.70;94009.00;;;;7386385;19;20567;-78
2023/08/05 07:26:18;;;;;;;11.00;6.47;;;;;15.00;93973.00;;;;7387178;19;20480;-76
2023/08/05 07:28:49;;;;;;;10.63;6.97;;;;;15.10;94014.00;;;;7386136;19;20188;-76
2023/08/05 07:31:16;;;;;;;9.65;6.72;;;;;15.10;94011.00;;;;7386176;19;20158;-76
2023/08/05 07:33:51;;;;;;;8.43;6.65;;;;;15.40;94005.00;;;;7386059;19;20165;-75
2023/08/05 07:36:22;;;;;;;7.10;6.40;;;;;15.60;94003.00;;;;7385056;19;20616;-76
2023/08/05 07:38:57;;;;;;;9.05;6.05;;;;;15.80;94004.00;;;;7384151;19;20139;-77
2023/08/05 07:41:30;;;;;;;8.05;6.00;;;;;15.80;94002.00;;;;7385664;19;20611;-76
2023/08/05 07:44:09;;;;;;;6.07;5.47;;;;;15.80;94003.00;;;;7388185;19;20206;-75
2023/08/05 07:46:45;;;;;;;6.78;4.63;;;;;16.10;94000.00;;;;7385258;19;20141;-76
2023/08/05 07:49:13;;;;;;;7.90;5.25;;;;;16.10;93993.00;;;;7384664;19;20605;-74
2023/08/05 07:51:50;;;;;;;7.70;5.25;;;;;16.00;93988.00;;;;7385503;19;20151;-75
2023/08/05 07:54:20;;;;;;;5.50;5.00;;;;;16.20;93983.00;;;;7384590;19;20157;-75
2023/08/05 07:56:54;;;;;;;5.95;4.57;;;;;16.40;93994.00;;;;7384775;19;20181;-74
2023/08/05 07:59:23;;;;;;;9.05;3.90;;;;;16.40;93986.00;;;;7385897;19;20958;-76
2023/08/05 08:01:53;;;;;;;3.85;3.45;;;;;16.10;93983.00;;;;7384218;19;20534;-76
2023/08/05 08:04:27;;;;;;;5.97;3.60;;;;;16.70;93995.00;;;;7383422;19;20156;-79
2023/08/05 08:07:08;;;;;;;5.15;4.13;;;;;16.30;93981.00;;;;7383165;19;20144;-79
2023/08/05 08:09:43;;;;;;;5.50;4.38;;;;;16.40;93981.00;;;;7383764;19;20157;-78
2023/08/05 08:12:11;;;;;;;5.53;4.53;;;;;16.90;93973.00;;;;7383604;19;20505;-79
2023/08/05 08:14:39;;;;;;;5.88;4.00;;;;;17.40;94007.00;;;;7392085;19;20168;-80
2023/08/05 08:17:13;;;;;;;7.22;4.05;;;;;17.00;94005.00;;;;7389848;19;20546;-77
2023/08/05 08:19:40;;;;;;;4.45;3.65;;;;;16.80;93998.00;;;;7391816;19;20153;-78
2023/08/05 08:22:15;;;;;;;4.85;3.83;;;;;16.80;93999.00;;;;7388806;19;20151;-78
2023/08/05 08:24:49;;;;;;;4.13;3.33;;;;;16.30;94006.00;;;;7387921;19;20163;-77
2023/08/05 08:27:16;;;;;;;5.82;3.22;;;;;16.30;94006.00;;;;7392393;19;20125;-78
2023/08/05 08:29:52;;;;;;;3.50;3.20;;;;;16.60;93978.00;;;;7392382;19;20144;-79
2023/08/05 08:32:26;;;;;;;5.75;3.58;;;;;17.50;93975.00;;;;7389286;19;21559;-79
2023/08/05 08:35:01;;;;;;;5.40;3.28;;;;;18.20;93963.00;;;;7391091;19;20135;-78
2023/08/05 08:37:30;;;;;;;5.97;3.70;;;;;18.50;93962.00;;;;7391048;19;20156;-79
2023/08/05 08:40:05;;;;;;;3.42;2.85;;;;;18.10;93953.00;;;;7390315;19;20196;-79
2023/08/05 08:42:36;;;;;;;6.93;2.92;;;;;17.60;93993.00;;;;7389141;19;20159;-78
2023/08/05 08:45:15;;;;;;;7.07;3.05;;;;;16.70;93987.00;;;;7388685;19;20148;-79
2023/08/05 08:47:44;;;;;;;8.80;3.05;;;;;16.40;93966.00;;;;7389557;19;20506;-79
2023/08/05 08:50:21;;;;;;;4.90;3.10;;;;;17.40;93953.00;;;;7388515;19;20163;-79
2023/08/05 08:52:59;;;;;;;5.30;3.40;;;;;18.60;93952.00;;;;7388260;19;20196;-79
2023/08/05 08:55:33;;;;;;;3.83;3.10;;;;;19.00;93968.00;;;;7390627;19;21047;-79
2023/08/05 08:58:01;;;;;;;3.58;2.78;;;;;17.40;93969.00;;;;7386081;19;20231;-79
2023/08/05 09:00:36;;;;;;;3.80;3.22;;;;;16.70;93974.00;;;;7388617;19;20605;-80
2023/08/05 09:03:05;;;;;;;5.63;2.90;;;;;16.80;93952.00;;;;7388381;19;20520;-78
2023/08/05 09:05:52;;;;;;;4.18;3.30;;;;;18.30;93970.00;;;;7389455;19;20160;-77
2023/08/05 09:08:36;;;;;;;5.82;2.65;;;;;17.80;93984.00;;;;7391182;19;20133;-78
2023/08/05 09:11:10;;;;;;;3.50;2.33;;;;;17.60;93986.00;;;;7388398;19;20599;-78
2023/08/05 09:13:39;;;;;;;5.63;2.47;;;;;18.00;93953.00;;;;7388564;19;20141;-76
2023/08/05 09:16:14;;;;;;;4.57;2.83;;;;;19.20;93948.00;;;;7390287;19;20160;-79
2023/08/05 09:18:51;;;;;;;4.18;2.70;;;;;19.50;93941.00;;;;7388795;19;20144;-75
2023/08/05 09:21:29;;;;;;;3.67;2.60;;;;;20.20;93930.00;;;;7387638;19;20149;-75
2023/08/05 09:24:04;;;;;;;3.10;2.58;;;;;20.70;93950.00;;;;7385689;19;20176;-74
2023/08/05 09:26:33;;;;;;;3.92;2.67;;;;;19.20;93976.00;;;;7389166;19;20576;-75
2023/08/05 09:29:06;;;;;;;4.03;2.95;;;;;18.70;93969.00;;;;7385792;19;20152;-75
2023/08/05 09:31:40;;;;;;;5.00;2.50;;;;;17.50;93969.00;;;;7385136;19;20153;-74
2023/08/05 09:34:15;;;;;;;3.72;2.85;;;;;17.20;93973.00;;;;7386041;19;20125;-74
2023/08/05 09:36:49;;;;;;;6.03;2.63;;;;;16.80;93982.00;;;;7386550;19;20168;-75
2023/08/05 09:39:17;;;;;;;5.75;3.30;;;;;16.70;93978.00;;;;7387488;19;20137;-75
2023/08/05 09:41:51;;;;;;;4.18;3.00;;;;;16.70;93940.00;;;;7385635;19;20148;-75
2023/08/05 09:44:27;;;;;;;3.72;3.00;;;;;18.40;93958.00;;;;7385807;19;20499;-76
2023/08/05 09:46:59;;;;;;;3.10;2.20;;;;;18.50;93967.00;;;;7385916;19;20125;-75
2023/08/05 09:49:37;;;;;;;2.65;2.15;;;;;18.00;93919.00;;;;7386994;19;20211;-75
2023/08/05 09:52:05;;;;;;;2.90;2.60;;;;;17.50;93961.00;;;;7385376;19;20153;-75
2023/08/05 09:54:47;;;;;;;2.95;2.65;;;;;17.60;93933.00;;;;7387692;19;20152;-73
2023/08/05 09:57:22;;;;;;;4.85;3.20;;;;;19.20;93924.00;;;;7383635;19;20128;-73
2023/08/05 09:59:53;;;;;;;3.08;2.78;;;;;20.00;93915.00;;;;7384707;19;20145;-74
2023/08/05 10:02:30;;;;;;;4.43;2.63;;;;;20.70;93937.00;;;;7385051;19;20172;-75
2023/08/05 10:04:59;;;;;;;2.47;2.03;;;;;20.00;93937.00;;;;7385301;19;20243;-76
2023/08/05 10:07:41;;;;;;;2.38;2.05;;;;;19.70;93901.00;;;;7384688;19;20133;-75
2023/08/05 10:10:17;;;;;;;3.42;2.25;;;;;21.20;93921.00;;;;7383910;19;20159;-75
2023/08/05 10:13:19;;;;;;;2.55;2.20;;;;;20.80;93935.00;;;;7386097;19;20156;-77
2023/08/05 10:15:55;;;;;;;2.50;2.10;;;;;19.70;93938.00;;;;7387030;19;20147;-75
2023/08/05 10:18:32;;;;;;;2.88;2.30;;;;;18.90;93943.00;;;;7384792;19;20152;-75
2023/08/05 10:21:09;;;;;;;4.10;1.98;;;;;18.80;93937.00;;;;7382943;19;20149;-76
2023/08/05 10:23:37;;;;;;;2.60;2.00;;;;;19.10;93897.00;;;;7386032;19;20133;-77
2023/08/05 10:26:05;;;;;;;4.00;2.30;;;;;20.00;93922.00;;;;7383248;19;20156;-77
2023/08/05 10:28:42;;;;;;;2.50;1.88;;;;;20.60;93885.00;;;;7383695;19;20165;-77
2023/08/05 10:31:24;;;;;;;4.25;2.00;;;;;21.40;93880.00;;;;7384690;19;20149;-76
2023/08/05 10:34:10;;;;;;;2.40;1.95;;;;;22.20;93883.00;;;;7385827;19;20150;-79
2023/08/05 10:36:47;;;;;;;2.35;1.55;;;;;22.90;93874.00;;;;7382916;19;20490;-78
2023/08/05 10:39:39;;;;;;;2.63;1.63;;;;;24.10;93861.00;;;;7385355;19;20152;-76
2023/08/05 10:42:20;;;;;;;2.35;1.65;;;;;23.20;93892.00;;;;7383590;19;20477;-77
2023/08/05 10:44:55;;;;;;;3.22;1.70;;;;;21.70;93898.00;;;;7384928;19;20494;-78
2023/08/05 10:47:23;;;;;;;1.70;1.55;;;;;20.60;93900.00;;;;7387401;19;20214;-77
2023/08/05 10:50:00;;;;;;;9.23;2.00;;;;;20.00;93908.00;;;;7386753;19;20140;-78
2023/08/05 10:52:30;;;;;;;1.90;1.70;;;;;19.60;93913.00;;;;7384104;19;20153;-78
2023/08/05 10:55:10;;;;;;;1.95;1.67;;;;;19.30;93902.00;;;;7383907;19;20597;-80
2023/08/05 10:57:41;;;;;;;2.05;1.55;;;;;19.10;93910.00;;;;7381725;19;20176;-77
2023/08/05 11:00:20;;;;;;;1.63;1.50;;;;;18.80;93904.00;;;;7383322;19;20155;-77
2023/08/05 11:03:09;;;;;;;1.65;1.55;;;;;19.60;93893.00;;;;7383924;19;20646;-78
2023/08/05 11:05:51;;;;;;;1.85;1.60;;;;;21.20;93855.00;;;;7382076;19;20164;-77
2023/08/05 11:08:33;;;;;;;2.55;1.40;;;;;22.60;93855.00;;;;7383928;19;20173;-75
2023/08/05 11:11:09;;;;;;;1.77;1.48;;;;;23.20;93845.00;;;;7386228;19;20132;-78
2023/08/05 11:13:46;;;;;;;3.50;1.58;;;;;23.20;93839.00;;;;7386328;19;20125;-78
2023/08/05 11:16:21;;;;;;;1.70;1.60;;;;;23.10;93866.00;;;;7383679;19;20145;-79
2023/08/05 11:19:00;;;;;;;3.13;1.42;;;;;23.50;93855.00;;;;7382782;19;20572;-76
2023/08/05 11:21:34;;;;;;;3.42;2.15;;;;;21.40;93872.00;;;;7385838;19;20165;-79
2023/08/05 11:24:02;;;;;;;1.60;1.50;;;;;20.50;93860.00;;;;7382389;19;20144;-78
2023/08/05 11:26:30;;;;;;;2.28;1.50;;;;;21.10;93848.00;;;;7382637;19;20156;-78
2023/08/05 11:29:07;;;;;;;1.52;1.42;;;;;22.60;93863.00;;;;7385592;19;20596;-77
2023/08/05 11:31:35;;;;;;;1.60;1.50;;;;;22.30;93864.00;;;;7383621;19;20228;-79
2023/08/05 11:34:22;;;;;;;1.80;1.65;;;;;21.70;93866.00;;;;7385705;19;21110;-78
2023/08/05 11:36:56;;;;;;;2.00;1.50;;;;;20.60;93867.00;;;;7378429;19;20149;-79
2023/08/05 11:39:33;;;;;;;1.85;1.63;;;;;20.40;93863.00;;;;7383900;19;20145;-79
2023/08/05 11:42:03;;;;;;;4.38;1.75;;;;;20.10;93853.00;;;;7382976;19;20145;-80
2023/08/05 11:44:38;;;;;;;1.52;1.40;;;;;20.30;93860.00;;;;7381964;19;20132;-78
2023/08/05 11:47:08;;;;;;;1.98;1.40;;;;;20.10;93866.00;;;;7382075;19;20136;-78
2023/08/05 11:49:52;;;;;;;1.75;1.65;;;;;19.70;93856.00;;;;7390878;19;20231;-80
2023/08/05 11:52:21;;;;;;;3.25;1.85;;;;;19.70;93864.00;;;;7389395;19;20552;-78
2023/08/05 11:55:00;;;;;;;3.08;1.70;;;;;19.70;93857.00;;;;7387949;19;20157;-77
2023/08/05 11:57:36;;;;;;;3.85;1.80;;;;;20.10;93852.00;;;;7386207;19;20143;-79
2023/08/05 12:00:13;;;;;;;1.75;1.65;;;;;20.50;93853.00;;;;7386792;19;20144;-77
2023/08/05 12:02:41;;;;;;;1.92;1.80;;;;;20.40;93848.00;;;;7388592;19;20199;-78
2023/08/05 12:05:28;;;;;;;3.17;1.73;;;;;20.20;93839.00;;;;7387397;19;20184;-78
2023/08/05 12:07:56;;;;;;;2.60;2.00;;;;;20.00;93842.00;;;;7388571;19;20507;-79
2023/08/05 12:10:30;;;;;;;4.57;1.92;;;;;20.00;93839.00;;;;7389651;19;20137;-79
2023/08/05 12:13:08;;;;;;;2.47;2.25;;;;;19.90;93842.00;;;;7388219;19;20216;-79
2023/08/05 12:15:37;;;;;;;3.00;2.30;;;;;19.60;93848.00;;;;7387399;19;20605;-78
2023/08/05 12:18:11;;;;;;;5.70;2.40;;;;;18.80;93854.00;;;;7387900;19;20132;-78
2023/08/05 12:20:45;;;;;;;2.83;2.42;;;;;18.50;93849.00;;;;7388378;19;20141;-78
2023/08/05 12:23:20;;;;;;;2.47;2.05;;;;;18.00;93855.00;;;;7387028;19;20457;-78
2023/08/05 12:25:48;;;;;;;4.00;1.90;;;;;17.80;93854.00;;;;7387806;19;20129;-78
2023/08/05 12:28:22;;;;;;;2.75;2.20;;;;;17.60;93860.00;;;;7388106;19;20212;-79
2023/08/05 12:30:50;;;;;;;2.78;2.50;;;;;17.60;93858.00;;;;7388131;19;20200;-79
2023/08/05 12:33:24;;;;;;;2.80;2.40;;;;;17.50;93856.00;;;;7387302;19;20145;-78
2023/08/05 12:35:58;;;;;;;2.20;2.00;;;;;17.20;93858.00;;;;7386074;19;20159;-78
2023/08/05 12:38:26;;;;;;;3.67;2.15;;;;;17.00;93860.00;;;;7387969;19;20129;-79
2023/08/05 12:41:01;;;;;;;3.83;2.30;;;;;16.70;93861.00;;;;7387221;19;20151;-79
2023/08/05 12:43:29;;;;;;;3.63;2.47;;;;;16.70;93867.00;;;;7387354;19;20703;-80
2023/08/05 12:46:03;;;;;;;2.85;2.42;;;;;16.70;93857.00;;;;7390449;19;20148;-81